Time;durP1;ratioP1;P1;durP2;ratioP2;P2;SDS_P1;SDS_P2;PMS_P1;PMS_P2;Temp;Humidity;BMP_temperature;BMP_pressure;BME280_temperature;BME280_humidity;BME280_pressure;Samples;Min_cycle;Max_cycle;Signal;HPM_P1;HPM_P2
2023/04/15 00:04:38;;;;;;;6.47;3.85;;;;;;;10.58;56.09;99254.78;10412872;28;20451;-69
2023/04/15 00:09:41;;;;;;;4.85;3.92;;;;;;;10.60;56.55;99266.09;10413389;28;20040;-73
2023/04/15 00:14:43;;;;;;;4.22;3.83;;;;;;;10.53;56.86;99264.19;10410583;28;20041;-72
2023/04/15 00:19:45;;;;;;;4.40;3.83;;;;;;;10.49;57.17;99260.13;10424195;28;20127;-68
2023/04/15 00:24:46;;;;;;;7.80;4.10;;;;;;;10.38;57.11;99253.19;10428888;28;20102;-73
2023/04/15 00:29:48;;;;;;;4.60;3.88;;;;;;;10.41;57.37;99252.91;10414941;28;20668;-70
2023/04/15 00:34:49;;;;;;;3.83;3.42;;;;;;;10.38;57.41;99247.88;10409791;28;20048;-70
2023/04/15 00:39:51;;;;;;;3.92;3.35;;;;;;;10.34;57.69;99249.13;10411469;28;20068;-70
2023/04/15 00:44:52;;;;;;;4.75;2.83;;;;;;;10.28;57.54;99245.22;10413407;28;20072;-70
2023/04/15 00:49:53;;;;;;;4.60;3.35;;;;;;;10.16;57.88;99231.25;10408319;28;20136;-70
2023/04/15 00:54:55;;;;;;;5.35;2.92;;;;;;;10.18;57.80;99234.63;10412354;28;20047;-73
2023/04/15 00:59:56;;;;;;;4.20;3.30;;;;;;;10.10;57.78;99234.50;10409946;28;20045;-70
2023/04/15 01:04:58;;;;;;;4.50;3.38;;;;;;;10.05;57.55;99237.59;10410272;28;20055;-71
2023/04/15 01:09:59;;;;;;;4.45;3.35;;;;;;;9.97;57.54;99228.66;10410890;28;20053;-72
2023/04/15 01:15:01;;;;;;;4.72;3.30;;;;;;;10.02;57.72;99234.41;10409133;28;20060;-70
2023/04/15 01:20:04;;;;;;;3.83;3.25;;;;;;;9.95;57.70;99235.94;10411033;28;20149;-71
2023/04/15 01:25:11;;;;;;;5.57;3.30;;;;;;;9.96;57.78;99237.63;10408991;28;20052;-71
2023/04/15 01:30:12;;;;;;;7.47;3.20;;;;;;;9.94;57.55;99239.59;10406143;28;20056;-70
2023/04/15 01:35:14;;;;;;;4.80;3.72;;;;;;;9.90;57.79;99245.19;10405534;28;20056;-72
2023/04/15 01:40:15;;;;;;;3.78;3.13;;;;;;;9.82;57.24;99230.97;10410132;28;20227;-72
2023/04/15 01:45:17;;;;;;;5.57;3.33;;;;;;;9.81;57.20;99240.75;10411969;28;20057;-71
2023/04/15 01:50:19;;;;;;;4.93;3.03;;;;;;;9.84;57.30;99234.31;10411468;28;20061;-72
2023/04/15 01:55:20;;;;;;;4.70;3.10;;;;;;;9.84;57.34;99223.69;10412332;28;20056;-69
2023/04/15 02:00:22;;;;;;;4.68;3.00;;;;;;;9.84;57.42;99229.81;10410836;28;20052;-70
2023/04/15 02:05:24;;;;;;;5.53;3.00;;;;;;;9.83;57.29;99233.47;10405895;28;20411;-71
2023/04/15 02:10:26;;;;;;;5.25;3.10;;;;;;;9.84;57.43;99240.44;10409719;28;20529;-71
2023/04/15 02:15:27;;;;;;;5.15;3.30;;;;;;;9.82;57.34;99246.91;10409733;28;20087;-69
2023/04/15 02:20:29;;;;;;;4.72;2.97;;;;;;;9.80;57.58;99249.69;10409318;28;20051;-70
2023/04/15 02:25:31;;;;;;;6.28;3.38;;;;;;;9.77;57.87;99241.16;10406297;28;20765;-72
2023/04/15 02:30:33;;;;;;;2.95;2.65;;;;;;;9.79;58.15;99247.16;10407848;28;20136;-72
2023/04/15 02:35:36;;;;;;;5.72;3.20;;;;;;;9.72;58.15;99239.78;10422874;28;20138;-70
2023/04/15 02:40:38;;;;;;;4.10;3.30;;;;;;;9.72;58.37;99245.09;10408570;28;20057;-70
2023/04/15 02:45:42;;;;;;;6.13;3.17;;;;;;;9.66;58.40;99245.66;10409277;28;20660;-72
2023/04/15 02:50:45;;;;;;;4.63;3.13;;;;;;;9.59;58.61;99235.75;10396638;28;20131;-70
2023/04/15 02:55:46;;;;;;;6.90;3.40;;;;;;;9.55;58.93;99246.66;10397233;28;20118;-71
2023/04/15 03:00:49;;;;;;;6.97;3.30;;;;;;;9.46;59.01;99236.88;10406537;28;20056;-71
2023/04/15 03:05:51;;;;;;;5.47;3.35;;;;;;;9.46;58.96;99241.38;10405696;28;20170;-73
2023/04/15 03:10:53;;;;;;;4.47;3.67;;;;;;;9.45;59.42;99253.78;10406438;28;20178;-74
2023/04/15 03:15:54;;;;;;;5.15;3.40;;;;;;;9.39;59.75;99251.69;10406530;28;20053;-72
2023/04/15 03:20:56;;;;;;;5.78;4.05;;;;;;;9.42;59.50;99240.81;10405884;28;20480;-72
2023/04/15 03:26:00;;;;;;;4.68;4.18;;;;;;;9.38;60.02;99247.38;10406282;28;20053;-72
2023/04/15 03:31:01;;;;;;;6.15;4.15;;;;;;;9.37;60.36;99243.06;10402593;28;20543;-71
2023/04/15 03:36:03;;;;;;;5.28;4.25;;;;;;;9.27;60.91;99239.56;10407110;28;20068;-74
2023/04/15 03:41:04;;;;;;;5.45;4.53;;;;;;;9.25;61.89;99239.69;10404860;28;20061;-72
2023/04/15 03:46:06;;;;;;;7.13;4.68;;;;;;;9.28;61.71;99233.28;10407544;28;20088;-71
2023/04/15 03:51:08;;;;;;;4.82;4.18;;;;;;;9.25;61.87;99233.53;10405866;28;20057;-73
2023/04/15 03:56:10;;;;;;;6.80;4.00;;;;;;;9.19;62.15;99225.16;10407453;28;20061;-73
2023/04/15 04:01:11;;;;;;;5.28;4.70;;;;;;;9.18;61.54;99227.94;10412483;28;20055;-72
2023/04/15 04:06:14;;;;;;;6.00;4.28;;;;;;;9.18;61.52;99231.44;10414224;28;20063;-75
2023/04/15 04:11:16;;;;;;;7.38;4.13;;;;;;;9.12;61.06;99223.19;10407761;28;20569;-70
2023/04/15 04:16:17;;;;;;;5.53;4.28;;;;;;;9.06;60.98;99229.91;10415993;28;20092;-72
2023/04/15 04:21:20;;;;;;;4.28;3.80;;;;;;;9.03;61.72;99233.66;10418538;28;20069;-73
2023/04/15 04:26:21;;;;;;;6.13;4.20;;;;;;;8.99;61.68;99237.59;10420354;28;20347;-72
2023/04/15 04:31:23;;;;;;;7.07;4.10;;;;;;;8.94;62.08;99228.34;10435576;28;20117;-70
2023/04/15 04:36:25;;;;;;;4.75;4.28;;;;;;;8.95;61.88;99235.34;10453861;28;20053;-74
2023/04/15 04:41:27;;;;;;;7.90;4.70;;;;;;;8.97;62.40;99236.88;10432424;28;20049;-74
2023/04/15 04:46:28;;;;;;;4.82;4.40;;;;;;;8.93;62.38;99245.25;10417319;28;20553;-71
2023/04/15 04:51:30;;;;;;;6.28;4.72;;;;;;;8.85;62.74;99240.63;10414986;28;20366;-71
2023/04/15 04:56:33;;;;;;;6.30;4.75;;;;;;;8.90;62.98;99242.88;10431524;28;20045;-75
2023/04/15 05:01:34;;;;;;;6.95;5.28;;;;;;;8.90;63.06;99242.88;10434135;28;20082;-70
2023/04/15 05:06:36;;;;;;;6.88;5.05;;;;;;;8.92;63.34;99246.25;10414820;28;20056;-73
2023/04/15 05:11:37;;;;;;;7.50;5.85;;;;;;;8.90;63.65;99262.28;10412192;28;20048;-73
2023/04/15 05:16:38;;;;;;;6.05;5.43;;;;;;;8.78;63.51;99248.31;10399125;28;20152;-72
2023/04/15 05:21:40;;;;;;;6.60;5.60;;;;;;;8.78;64.28;99264.25;10409903;28;20045;-73
2023/04/15 05:26:41;;;;;;;5.90;5.28;;;;;;;8.74;64.32;99260.16;10410416;28;20190;-70
2023/04/15 05:31:43;;;;;;;6.43;5.30;;;;;;;8.84;64.27;99274.31;10412318;28;20130;-71
2023/04/15 05:36:45;;;;;;;7.35;5.93;;;;;;;8.91;64.11;99279.88;10411727;28;20053;-72
2023/04/15 05:41:46;;;;;;;5.38;4.88;;;;;;;8.97;64.16;99289.13;10410244;28;20053;-71
2023/04/15 05:46:48;;;;;;;6.10;5.13;;;;;;;9.00;63.99;99287.03;10408603;28;20052;-70
2023/04/15 05:51:49;;;;;;;8.73;5.38;;;;;;;8.90;63.98;99282.69;10410923;28;20350;-72
2023/04/15 05:56:50;;;;;;;6.75;5.50;;;;;;;8.93;64.17;99290.38;10407430;28;20513;-70
2023/04/15 06:01:52;;;;;;;6.57;5.47;;;;;;;8.97;64.38;99284.66;10411126;28;20844;-71
2023/04/15 06:06:53;;;;;;;6.00;5.25;;;;;;;9.08;63.98;99291.66;10412389;28;20041;-72
2023/04/15 06:11:56;;;;;;;6.07;5.38;;;;;;;9.13;64.12;99285.94;10411327;28;20496;-71
2023/04/15 06:16:57;;;;;;;6.85;5.38;;;;;;;9.27;63.50;99290.84;10413131;28;20052;-69
2023/04/15 06:21:59;;;;;;;6.75;6.05;;;;;;;9.41;62.90;99299.38;10415663;28;20779;-69
2023/04/15 06:27:01;;;;;;;5.32;4.82;;;;;;;9.54;62.00;99302.59;10412480;28;20055;-72
2023/04/15 06:32:02;;;;;;;6.40;5.03;;;;;;;9.66;61.90;99305.94;10409218;28;20091;-70
2023/04/15 06:37:04;;;;;;;7.00;5.60;;;;;;;9.70;61.57;99307.34;10409248;28;20575;-72
2023/04/15 06:42:06;;;;;;;5.97;5.25;;;;;;;9.84;61.40;99304.25;10406977;28;20076;-72
2023/04/15 06:47:08;;;;;;;6.93;5.53;;;;;;;9.90;61.80;99309.00;10406743;28;20045;-72
2023/04/15 06:52:10;;;;;;;7.10;6.28;;;;;;;10.02;61.87;99306.19;10412697;28;20059;-71
2023/04/15 06:57:11;;;;;;;7.07;6.38;;;;;;;10.19;61.52;99313.44;10415772;28;20063;-71
2023/04/15 07:02:13;;;;;;;6.47;5.80;;;;;;;10.26;61.40;99325.16;10413865;28;20045;-74
2023/04/15 07:07:16;;;;;;;8.48;5.75;;;;;;;10.34;60.97;99316.47;10414305;28;20345;-73
2023/04/15 07:12:17;;;;;;;6.05;5.47;;;;;;;10.49;61.07;99324.00;10413574;28;20947;-73
2023/04/15 07:17:19;;;;;;;7.25;5.70;;;;;;;10.63;60.94;99320.00;10413586;28;20540;-68
2023/04/15 07:22:20;;;;;;;6.47;5.47;;;;;;;10.76;60.78;99324.03;10412036;28;20123;-72
2023/04/15 07:27:21;;;;;;;5.93;5.43;;;;;;;10.71;61.03;99317.47;10408023;28;20085;-69
2023/04/15 07:32:23;;;;;;;6.50;5.72;;;;;;;10.75;60.78;99318.84;10415053;28;20049;-70
2023/04/15 07:37:24;;;;;;;7.03;5.20;;;;;;;10.79;60.92;99325.53;10420811;28;20134;-70
2023/04/15 07:42:26;;;;;;;5.35;4.85;;;;;;;10.85;60.64;99324.13;10420674;28;20329;-71
2023/04/15 07:47:27;;;;;;;5.85;5.32;;;;;;;10.98;61.17;99337.09;10419257;28;20079;-70
2023/04/15 07:52:29;;;;;;;6.47;5.80;;;;;;;11.15;60.13;99330.94;10419849;28;20487;-72
2023/04/15 07:57:30;;;;;;;6.70;5.70;;;;;;;11.31;59.51;99332.97;10418838;28;20059;-72
2023/04/15 08:02:32;;;;;;;6.18;5.57;;;;;;;11.51;59.07;99330.97;10415271;28;20052;-72
2023/04/15 08:07:35;;;;;;;6.75;6.03;;;;;;;11.61;58.66;99336.25;10417568;28;20045;-72
2023/04/15 08:12:36;;;;;;;5.55;5.05;;;;;;;11.65;58.86;99337.63;10412128;28;20614;-73
2023/04/15 08:17:38;;;;;;;5.75;5.05;;;;;;;11.76;58.38;99339.22;10412652;28;20145;-70
2023/04/15 08:22:40;;;;;;;6.88;5.45;;;;;;;11.78;57.63;99337.22;10414429;28;20045;-74
2023/04/15 08:27:41;;;;;;;6.03;4.93;;;;;;;11.95;56.90;99333.75;10412593;28;20207;-72
2023/04/15 08:32:46;;;;;;;5.43;4.93;;;;;;;12.07;55.55;99344.16;10413635;28;20859;-71
2023/04/15 08:37:48;;;;;;;;;;;;;;;12.22;54.44;99345.28;10411171;28;20045;-70
2023/04/15 08:42:53;;;;;;;4.18;3.78;;;;;;;12.42;53.17;99340.56;10413244;28;19931;-70
2023/04/15 08:47:56;;;;;;;5.68;3.90;;;;;;;12.57;52.75;99329.31;10411173;28;20662;-70
2023/04/15 08:53:00;;;;;;;3.33;3.03;;;;;;;12.69;51.61;99336.84;10412537;28;20276;-68
2023/04/15 08:58:02;;;;;;;4.85;3.78;;;;;;;12.54;52.93;99344.63;10408575;28;20160;-71
2023/04/15 09:03:05;;;;;;;4.10;2.97;;;;;;;12.61;52.04;99326.16;10409396;28;20772;-72
2023/04/15 09:08:07;;;;;;;3.28;2.95;;;;;;;12.87;50.73;99342.13;10410970;28;20136;-72
2023/04/15 09:13:08;;;;;;;3.40;2.95;;;;;;;12.83;50.52;99340.75;10410930;28;20056;-73
2023/04/15 09:18:12;;;;;;;3.08;2.53;;;;;;;12.94;50.27;99344.13;10414651;28;20049;-75
2023/04/15 09:23:14;;;;;;;3.13;2.85;;;;;;;13.12;49.66;99349.38;10423931;28;20063;-73
2023/04/15 09:28:24;;;;;;;3.63;2.67;;;;;;;13.21;49.56;99357.28;10401461;28;20147;-72
2023/04/15 09:33:27;;;;;;;3.40;3.10;;;;;;;13.01;49.65;99362.03;10408484;28;20141;-74
2023/04/15 09:38:28;;;;;;;4.25;2.78;;;;;;;12.95;50.55;99368.00;10410644;28;20457;-72
2023/04/15 09:43:38;;;;;;;3.67;2.70;;;;;;;12.91;49.44;99367.50;10409979;28;20873;-71
2023/04/15 09:48:39;;;;;;;2.95;2.25;;;;;;;12.91;49.37;99380.03;10409583;28;20051;-73
2023/04/15 09:53:41;;;;;;;3.03;2.65;;;;;;;12.81;49.44;99369.47;10409913;28;20048;-74
2023/04/15 09:58:42;;;;;;;3.97;2.85;;;;;;;12.86;49.75;99385.00;10406888;28;20500;-72
2023/04/15 10:03:46;;;;;;;3.00;2.25;;;;;;;12.71;49.72;99377.56;10408570;28;20056;-72
2023/04/15 10:08:48;;;;;;;2.72;2.10;;;;;;;12.59;50.14;99389.53;10406024;28;20661;-72
2023/04/15 10:13:51;;;;;;;2.90;1.77;;;;;;;12.67;49.27;99399.41;10408017;28;20041;-73
2023/04/15 10:18:55;;;;;;;3.75;1.73;;;;;;;12.73;49.05;99409.50;10424084;28;20045;-70
2023/04/15 10:23:57;;;;;;;1.92;1.73;;;;;;;12.86;49.34;99407.19;10408484;28;20051;-74
2023/04/15 10:29:00;;;;;;;3.85;2.30;;;;;;;13.08;49.30;99421.84;10410018;28;20552;-68
2023/04/15 10:34:05;;;;;;;4.80;1.85;;;;;;;13.26;48.99;99418.25;10408681;28;20419;-70
2023/04/15 10:39:44;;;;;;;2.60;2.10;;;;;;;13.69;48.37;99418.22;10410028;28;20143;-72
2023/04/15 10:44:51;;;;;;;3.05;2.45;;;;;;;13.81;48.08;99430.31;10406832;28;20052;-75
2023/04/15 10:50:01;;;;;;;3.22;2.20;;;;;;;13.75;48.64;99423.78;10407570;28;20425;-71
2023/04/15 10:55:13;;;;;;;2.88;1.90;;;;;;;13.63;48.83;99429.56;10404653;28;20051;-69
2023/04/15 11:00:16;;;;;;;3.65;2.33;;;;;;;13.46;49.56;99428.69;10405463;28;20480;-72
2023/04/15 11:05:18;;;;;;;2.75;2.08;;;;;;;13.32;50.33;99444.31;10406374;28;20140;-74
2023/04/15 11:10:20;;;;;;;2.25;2.05;;;;;;;13.53;51.28;99441.25;10413679;28;20532;-70
2023/04/15 11:15:41;;;;;;;2.30;1.80;;;;;;;13.73;52.38;99441.78;10415559;28;20049;-71
2023/04/15 11:20:46;;;;;;;2.50;2.30;;;;;;;14.05;52.90;99445.56;10412659;28;20056;-72
2023/04/15 11:25:47;;;;;;;2.38;2.17;;;;;;;13.86;54.28;99451.22;10415128;28;20139;-73
2023/04/15 11:30:49;;;;;;;4.03;3.72;;;;;;;13.63;55.41;99450.97;10416707;28;20222;-73
2023/04/15 11:35:54;;;;;;;3.08;2.85;;;;;;;13.42;58.50;99471.81;10421126;28;20131;-72
2023/04/15 11:40:55;;;;;;;2.58;2.38;;;;;;;13.26;58.98;99472.53;10430468;28;20056;-74
2023/04/15 11:46:01;;;;;;;4.00;3.60;;;;;;;13.13;60.43;99481.97;10424899;28;20449;-69
2023/04/15 11:51:05;;;;;;;6.03;4.15;;;;;;;13.11;62.22;99486.66;10415581;28;20417;-70
2023/04/15 11:56:15;;;;;;;3.57;2.77;;;;;;;13.14;63.07;99479.16;10417770;28;20110;-72
2023/04/15 12:01:17;;;;;;;24.70;18.05;;;;;;;13.20;64.30;99493.72;10432434;28;20072;-71
2023/04/15 12:06:33;;;;;;;4.35;3.30;;;;;;;13.21;65.44;99500.72;10450194;28;20083;-73
2023/04/15 12:11:40;;;;;;;3.13;2.72;;;;;;;13.17;65.28;99507.41;10450526;28;20149;-73
2023/04/15 12:16:44;;;;;;;2.50;2.25;;;;;;;13.11;66.51;99521.41;10432704;28;20044;-73
2023/04/15 12:21:52;;;;;;;1.90;1.65;;;;;;;13.05;66.77;99533.53;10421140;28;20082;-70
2023/04/15 12:26:56;;;;;;;2.60;1.58;;;;;;;12.97;68.41;99537.00;10416451;28;20048;-72
2023/04/15 12:32:04;;;;;;;2.45;2.13;;;;;;;12.95;67.57;99547.00;10413761;28;20519;-72
2023/04/15 12:37:11;;;;;;;2.15;1.95;;;;;;;12.87;69.62;99536.25;10414052;28;20044;-72
2023/04/15 12:42:14;;;;;;;1.95;1.80;;;;;;;12.81;68.90;99548.41;10412351;28;20049;-71
2023/04/15 12:47:16;;;;;;;2.27;2.07;;;;;;;12.62;70.50;99565.41;10411523;28;20111;-73
2023/04/15 12:52:20;;;;;;;2.70;1.95;;;;;;;12.34;70.49;99562.84;10413344;28;20057;-74
2023/04/15 12:57:21;;;;;;;4.03;2.00;;;;;;;12.18;71.61;99573.34;10410436;28;20134;-69
2023/04/15 13:02:24;;;;;;;2.97;1.67;;;;;;;12.06;70.34;99563.88;10410327;28;20068;-70
2023/04/15 13:07:26;;;;;;;1.70;1.60;;;;;;;11.91;71.87;99577.69;10410002;28;20049;-71
2023/04/15 13:12:27;;;;;;;2.85;1.80;;;;;;;11.94;72.79;99590.75;10412068;28;20068;-72
2023/04/15 13:17:28;;;;;;;1.25;1.02;;;;;;;12.12;70.77;99584.63;10408942;28;20884;-72
2023/04/15 13:22:30;;;;;;;1.77;1.27;;;;;;;12.15;71.07;99581.66;10411524;28;20182;-73
2023/04/15 13:27:32;;;;;;;1.13;0.98;;;;;;;12.24;69.12;99588.75;10408361;28;20406;-69
2023/04/15 13:32:33;;;;;;;1.10;0.95;;;;;;;12.07;70.17;99582.41;10405895;28;20076;-69
2023/04/15 13:37:35;;;;;;;0.57;0.50;;;;;;;11.81;68.58;99596.41;10407473;28;20048;-68
2023/04/15 13:42:36;;;;;;;0.80;0.50;;;;;;;11.64;69.39;99592.69;10408117;28;20056;-70
2023/04/15 13:47:38;;;;;;;0.70;0.40;;;;;;;11.49;68.58;99594.16;10407312;28;20063;-74
2023/04/15 13:52:39;;;;;;;0.50;0.35;;;;;;;11.52;70.11;99593.84;10408156;28;20045;-70
2023/04/15 13:57:41;;;;;;;0.60;0.40;;;;;;;11.43;70.36;99600.06;10407051;28;20079;-67
2023/04/15 14:02:42;;;;;;;2.67;0.30;;;;;;;11.14;71.33;99600.97;10407968;28;20345;-66
2023/04/15 14:07:43;;;;;;;1.98;0.50;;;;;;;11.40;72.71;99611.00;10438174;28;20067;-72
2023/04/15 14:12:45;;;;;;;0.40;0.30;;;;;;;11.70;72.80;99617.91;10453912;28;20044;-70
2023/04/15 14:17:46;;;;;;;2.08;0.60;;;;;;;11.86;71.57;99617.31;10413772;28;20699;-68
2023/04/15 14:22:48;;;;;;;1.00;0.95;;;;;;;11.80;71.80;99634.72;10408255;28;20052;-71
2023/04/15 14:27:49;;;;;;;1.27;1.00;;;;;;;11.65;71.13;99634.34;10407316;28;20045;-73
2023/04/15 14:32:51;;;;;;;1.40;1.10;;;;;;;11.75;70.75;99636.16;10406801;28;20053;-67
2023/04/15 14:37:53;;;;;;;1.40;0.90;;;;;;;11.82;70.89;99643.41;10404649;28;20048;-74
2023/04/15 14:42:55;;;;;;;1.85;1.10;;;;;;;11.82;72.08;99654.06;10407770;28;20136;-73
2023/04/15 14:47:56;;;;;;;1.00;0.70;;;;;;;11.65;71.60;99645.03;10407358;28;20053;-71
2023/04/15 14:52:58;;;;;;;1.15;1.00;;;;;;;11.76;71.50;99661.81;10406873;28;20057;-66
2023/04/15 14:58:01;;;;;;;1.42;0.90;;;;;;;11.52;73.67;99671.16;10404948;28;20057;-66
2023/04/15 15:03:02;;;;;;;1.42;0.88;;;;;;;11.51;73.73;99677.44;10402940;28;20173;-71
2023/04/15 15:08:06;;;;;;;1.17;0.75;;;;;;;11.29;73.32;99684.78;10404838;28;20068;-69
2023/04/15 15:13:08;;;;;;;1.70;1.40;;;;;;;11.44;74.93;99697.66;10406130;28;20103;-70
2023/04/15 15:18:10;;;;;;;1.75;1.17;;;;;;;11.39;75.26;99690.09;10402738;28;20247;-71
2023/04/15 15:23:12;;;;;;;1.92;1.58;;;;;;;11.39;75.61;99694.59;10405008;28;20114;-67
2023/04/15 15:28:13;;;;;;;1.42;1.25;;;;;;;11.40;75.18;99697.13;10405445;28;20087;-69
2023/04/15 15:33:14;;;;;;;1.73;0.55;;;;;;;11.23;74.21;99696.03;10404494;28;20052;-70
2023/04/15 15:38:16;;;;;;;0.82;0.63;;;;;;;11.28;76.54;99707.09;10405297;28;20052;-69
2023/04/15 15:43:17;;;;;;;1.10;0.85;;;;;;;11.30;75.08;99704.28;10403360;28;20049;-71
2023/04/15 15:48:19;;;;;;;0.52;0.40;;;;;;;11.28;76.73;99715.06;10403317;28;20069;-70
2023/04/15 15:53:23;;;;;;;0.85;0.50;;;;;;;11.28;75.40;99715.06;10406152;28;20235;-73
2023/04/15 15:58:24;;;;;;;1.17;0.60;;;;;;;11.16;78.08;99723.38;10412717;28;20052;-71
2023/04/15 16:03:25;;;;;;;1.50;1.20;;;;;;;11.08;78.56;99740.88;10412808;28;20059;-73
2023/04/15 16:08:27;;;;;;;1.08;0.45;;;;;;;11.05;78.42;99734.97;10409971;28;20463;-72
2023/04/15 16:13:28;;;;;;;0.65;0.50;;;;;;;11.17;78.88;99744.53;10411320;28;20522;-70
2023/04/15 16:18:30;;;;;;;0.60;0.30;;;;;;;11.19;78.41;99747.91;10413680;28;20045;-67
2023/04/15 16:23:35;;;;;;;0.90;0.70;;;;;;;11.28;77.50;99752.38;10410052;28;20048;-73
2023/04/15 16:28:36;;;;;;;0.80;0.57;;;;;;;11.27;77.94;99765.84;10410979;28;20275;-70
2023/04/15 16:33:38;;;;;;;0.90;0.70;;;;;;;11.22;78.27;99760.94;10408222;28;20067;-72
2023/04/15 16:38:39;;;;;;;1.15;0.82;;;;;;;11.12;78.16;99768.06;10408336;28;20059;-67
2023/04/15 16:43:41;;;;;;;2.50;0.60;;;;;;;11.10;80.00;99772.72;10410919;28;20045;-70
2023/04/15 16:48:42;;;;;;;1.20;1.10;;;;;;;11.04;80.47;99776.75;10411388;28;20053;-71
2023/04/15 16:53:43;;;;;;;0.93;0.60;;;;;;;11.11;80.11;99783.22;10411287;28;20048;-70
2023/04/15 16:58:45;;;;;;;1.73;1.30;;;;;;;11.03;80.19;99791.03;10409932;28;20061;-69
2023/04/15 17:03:46;;;;;;;1.95;0.90;;;;;;;10.77;82.28;99798.72;10408889;28;20059;-69
2023/04/15 17:08:48;;;;;;;1.25;1.05;;;;;;;10.86;80.97;99797.88;10410953;28;20051;-71
2023/04/15 17:13:49;;;;;;;1.55;0.95;;;;;;;10.85;81.59;99798.84;10407663;28;20120;-73
2023/04/15 17:18:51;;;;;;;0.90;0.65;;;;;;;10.92;81.43;99807.16;10407878;28;20946;-70
2023/04/15 17:23:53;;;;;;;1.02;0.73;;;;;;;10.99;81.16;99824.28;10409516;28;20070;-72
2023/04/15 17:28:54;;;;;;;1.20;0.80;;;;;;;10.84;81.24;99834.47;10409682;28;20477;-70
2023/04/15 17:33:56;;;;;;;2.05;1.10;;;;;;;10.92;80.88;99837.28;10407252;28;20048;-74
2023/04/15 17:39:10;;;;;;;1.97;0.90;;;;;;;10.97;80.76;99844.88;10407413;28;20234;-68
2023/04/15 17:44:12;;;;;;;1.20;0.90;;;;;;;10.90;80.58;99841.91;10409982;28;20381;-70
2023/04/15 17:49:13;;;;;;;1.60;0.60;;;;;;;11.02;80.26;99863.09;10408699;28;20051;-70
2023/04/15 17:54:15;;;;;;;1.38;0.77;;;;;;;11.01;80.83;99862.25;10406426;28;20547;-71
2023/04/15 17:59:16;;;;;;;1.27;0.90;;;;;;;10.95;81.07;99884.94;10406156;28;20056;-68
2023/04/15 18:04:18;;;;;;;1.20;0.98;;;;;;;10.91;81.75;99880.88;10406498;28;20595;-72
2023/04/15 18:09:19;;;;;;;1.80;1.08;;;;;;;10.90;81.68;99881.84;10407692;28;20078;-71
2023/04/15 18:14:21;;;;;;;0.82;0.47;;;;;;;10.99;81.54;99898.00;10407370;28;20053;-74
2023/04/15 18:19:35;;;;;;;2.05;0.98;;;;;;;10.87;82.18;99892.78;10404345;28;20052;-71
2023/04/15 18:24:36;;;;;;;2.67;1.88;;;;;;;10.98;82.41;99921.13;10405596;28;20108;-71
2023/04/15 18:29:38;;;;;;;1.73;0.90;;;;;;;10.98;81.81;99922.97;10406561;28;20571;-69
2023/04/15 18:34:41;;;;;;;2.00;0.80;;;;;;;10.94;82.99;99925.88;10406448;28;20059;-71
2023/04/15 18:39:43;;;;;;;1.20;0.90;;;;;;;10.82;83.51;99924.28;10406621;28;20912;-71
2023/04/15 18:44:44;;;;;;;1.42;0.93;;;;;;;10.81;82.90;99924.41;10405001;28;20583;-68
2023/04/15 18:49:45;;;;;;;1.88;1.30;;;;;;;10.85;83.16;99942.63;10406237;28;20288;-72
2023/04/15 18:54:47;;;;;;;1.50;0.95;;;;;;;10.87;83.46;99940.72;10426929;28;20051;-70
2023/04/15 18:59:48;;;;;;;1.42;1.15;;;;;;;10.81;82.49;99941.25;10431607;28;20045;-72
2023/04/15 19:04:49;;;;;;;1.38;1.17;;;;;;;10.94;82.52;99964.97;10404670;28;20481;-69
2023/04/15 19:09:51;;;;;;;3.63;3.05;;;;;;;10.90;82.27;99956.41;10405722;28;20647;-71
2023/04/15 19:14:53;;;;;;;2.25;2.05;;;;;;;10.99;81.51;99969.91;10404691;28;20372;-71
2023/04/15 19:19:55;;;;;;;2.80;1.20;;;;;;;10.92;81.31;99970.44;10405718;28;20083;-71
2023/04/15 19:24:56;;;;;;;1.42;1.17;;;;;;;10.98;81.58;99976.22;10403958;28;20813;-70
2023/04/15 19:29:58;;;;;;;1.77;1.10;;;;;;;10.99;81.53;99968.09;10408805;28;20073;-70
2023/04/15 19:34:59;;;;;;;1.00;0.80;;;;;;;10.98;80.35;99973.56;10415993;28;20144;-72
2023/04/15 19:40:01;;;;;;;2.20;1.02;;;;;;;10.84;80.90;99977.38;10415349;28;20139;-72
2023/04/15 19:45:02;;;;;;;1.85;1.70;;;;;;;10.88;80.65;99981.47;10427297;28;20048;-72
2023/04/15 19:50:06;;;;;;;2.40;1.70;;;;;;;11.02;79.43;100001.59;10454327;28;20078;-71
2023/04/15 19:55:07;;;;;;;1.58;1.30;;;;;;;10.87;80.03;99999.28;10434505;28;20403;-66
2023/04/15 20:00:09;;;;;;;1.40;1.30;;;;;;;10.92;79.78;99991.72;10417988;28;20052;-73
2023/04/15 20:05:11;;;;;;;1.73;1.20;;;;;;;10.67;79.90;99998.31;10411905;28;20084;-70
2023/04/15 20:10:13;;;;;;;1.30;1.10;;;;;;;10.69;80.55;99987.53;10414999;28;20056;-72
2023/04/15 20:15:14;;;;;;;1.45;1.27;;;;;;;10.82;79.79;99996.16;10410476;28;20064;-72
2023/04/15 20:20:16;;;;;;;1.65;1.30;;;;;;;10.77;79.55;100009.03;10412500;28;20060;-68
2023/04/15 20:25:17;;;;;;;3.83;2.92;;;;;;;10.82;79.84;100012.13;10408857;28;20045;-72
2023/04/15 20:30:19;;;;;;;1.60;1.40;;;;;;;10.79;79.86;100012.41;10409254;28;20151;-68
2023/04/15 20:35:21;;;;;;;1.50;1.30;;;;;;;10.81;79.69;100015.78;10409232;28;20490;-71
2023/04/15 20:40:22;;;;;;;1.60;1.02;;;;;;;10.84;79.07;100007.53;10411404;28;20755;-71
2023/04/15 20:45:23;;;;;;;1.52;1.20;;;;;;;10.78;79.00;100016.06;10413835;28;20477;-70
2023/04/15 20:50:25;;;;;;;1.70;1.27;;;;;;;10.59;79.62;100012.28;10412373;28;20683;-72
2023/04/15 20:55:26;;;;;;;2.00;1.80;;;;;;;10.69;79.29;100019.47;10411569;28;20500;-72
2023/04/15 21:00:32;;;;;;;1.52;1.42;;;;;;;10.66;79.52;100017.06;10409229;28;20057;-70
2023/04/15 21:05:33;;;;;;;1.90;1.70;;;;;;;10.75;78.60;100016.31;10407755;28;20766;-67
2023/04/15 21:10:35;;;;;;;1.73;1.58;;;;;;;10.42;78.81;100018.19;10409830;28;20063;-69
2023/04/15 21:15:36;;;;;;;1.75;1.35;;;;;;;10.57;79.55;100024.88;10406322;28;20067;-71
2023/04/15 21:20:37;;;;;;;2.13;1.77;;;;;;;10.59;79.03;100038.88;10409970;28;20086;-66
2023/04/15 21:25:39;;;;;;;2.10;1.88;;;;;;;10.65;78.76;100053.50;10410787;28;20053;-72
2023/04/15 21:30:40;;;;;;;2.25;1.88;;;;;;;10.67;79.11;100056.03;10408536;28;20059;-72
2023/04/15 21:35:41;;;;;;;1.67;1.58;;;;;;;10.75;78.28;100061.59;10408929;28;20045;-73
2023/04/15 21:40:43;;;;;;;2.30;1.73;;;;;;;10.75;77.81;100053.59;10409735;28;20083;-71
2023/04/15 21:45:44;;;;;;;1.75;1.55;;;;;;;10.67;77.61;100074.69;10406135;28;20056;-73
2023/04/15 21:51:06;;;;;;;2.10;1.90;;;;;;;10.64;78.31;100077.59;10404703;28;20338;-70
2023/04/15 21:56:08;;;;;;;3.00;1.88;;;;;;;10.66;77.79;100092.47;10405519;28;20049;-72
2023/04/15 22:01:09;;;;;;;1.80;1.45;;;;;;;10.56;78.40;100092.38;10406817;28;20079;-75
2023/04/15 22:06:12;;;;;;;2.17;1.67;;;;;;;10.46;77.79;100107.41;10407598;28;22269;-71
2023/04/15 22:11:25;;;;;;;2.30;1.92;;;;;;;10.42;79.07;100100.69;10406908;28;20052;-72
2023/04/15 22:16:27;;;;;;;2.00;1.70;;;;;;;10.39;78.54;100095.63;10407364;28;20814;-73
2023/04/15 22:21:28;;;;;;;1.88;1.73;;;;;;;10.50;78.48;100106.19;10408176;28;20044;-71
2023/04/15 22:26:30;;;;;;;2.00;1.80;;;;;;;10.53;77.88;100103.28;10407031;28;20053;-71
2023/04/15 22:31:31;;;;;;;2.42;2.22;;;;;;;10.40;78.83;100108.78;10408015;28;20045;-69
2023/04/15 22:36:33;;;;;;;2.40;2.20;;;;;;;10.35;78.47;100110.13;10405627;28;20063;-73
2023/04/15 22:41:34;;;;;;;2.75;2.38;;;;;;;10.40;79.09;100119.44;10405831;28;20183;-70
2023/04/15 22:46:37;;;;;;;2.95;2.65;;;;;;;10.46;77.95;100126.03;10405936;28;20064;-71
2023/04/15 22:51:38;;;;;;;2.92;2.72;;;;;;;10.46;78.46;100139.34;10405670;28;20455;-69
2023/04/15 22:56:39;;;;;;;3.35;3.05;;;;;;;10.41;78.52;100137.06;10405793;28;20707;-67
2023/04/15 23:01:41;;;;;;;3.78;3.47;;;;;;;10.46;78.30;100142.00;10401801;28;20061;-73
2023/04/15 23:06:42;;;;;;;4.43;4.03;;;;;;;10.53;77.45;100145.03;10400434;28;20052;-72
2023/04/15 23:11:44;;;;;;;4.85;4.25;;;;;;;10.55;77.76;100137.75;10403338;28;20733;-73
2023/04/15 23:16:45;;;;;;;5.38;4.88;;;;;;;10.46;77.86;100141.19;10401787;28;20111;-74
2023/04/15 23:21:47;;;;;;;5.38;4.68;;;;;;;10.42;78.14;100148.56;10403945;28;20111;-69
2023/04/15 23:26:48;;;;;;;5.55;4.80;;;;;;;10.48;77.98;100150.72;10403354;28;20183;-69
2023/04/15 23:31:50;;;;;;;5.15;4.65;;;;;;;10.56;77.99;100155.44;10407827;28;20080;-69